createdAt,value
2019-04-07T00:00:41.100Z,994.00
2019-04-07T00:01:41.169Z,993.99
2019-04-07T00:02:40.993Z,994.00
2019-04-07T00:03:41.167Z,993.96
2019-04-07T00:04:41.444Z,993.99
2019-04-07T00:05:41.604Z,993.92
2019-04-07T00:06:41.728Z,993.99
2019-04-07T00:07:42.347Z,993.92
2019-04-07T00:08:42.236Z,993.99
2019-04-07T00:09:42.484Z,993.99
2019-04-07T00:10:42.509Z,993.99
2019-04-07T00:11:42.802Z,993.99
2019-04-07T00:12:42.750Z,993.99
2019-04-07T00:13:43.007Z,993.96
2019-04-07T00:14:43.713Z,994.04
2019-04-07T00:15:43.316Z,994.01
2019-04-07T00:16:43.837Z,994.00
2019-04-07T00:17:44.057Z,994.02
2019-04-07T00:18:44.309Z,994.02
2019-04-07T00:19:43.926Z,994.05
2019-04-07T00:20:45.127Z,994.00
2019-04-07T00:21:44.279Z,994.01
2019-04-07T00:22:44.496Z,994.01
2019-04-07T00:23:44.659Z,993.98
2019-04-07T00:24:44.827Z,994.04
2019-04-07T00:25:45.036Z,994.00
2019-04-07T00:26:45.212Z,993.92
2019-04-07T00:27:45.405Z,993.98
2019-04-07T00:28:45.597Z,993.98
2019-04-07T00:29:45.763Z,993.97
2019-04-07T00:30:45.978Z,993.96
2019-04-07T00:31:46.174Z,993.92
2019-04-07T00:32:47.562Z,993.95
2019-04-07T00:33:46.573Z,993.90
2019-04-07T00:34:46.859Z,993.90
2019-04-07T00:35:47.922Z,993.93
2019-04-07T00:36:47.051Z,993.96
2019-04-07T00:37:47.267Z,993.93
2019-04-07T00:38:47.460Z,993.91
2019-04-07T00:39:47.743Z,993.96
2019-04-07T00:40:48.178Z,993.92
2019-04-07T00:41:48.043Z,993.92
2019-04-07T00:42:48.127Z,993.88
2019-04-07T00:43:48.311Z,993.88
2019-04-07T00:44:48.509Z,993.93
2019-04-07T00:45:49.210Z,993.94
2019-04-07T00:46:48.898Z,993.98
2019-04-07T00:47:49.372Z,993.97
2019-04-07T00:48:49.529Z,993.97
2019-04-07T00:49:50.128Z,993.97
2019-04-07T00:50:50.333Z,993.94
2019-04-07T00:51:49.899Z,994.01
2019-04-07T00:52:50.212Z,994.01
2019-04-07T00:53:50.730Z,993.95
2019-04-07T00:54:50.322Z,993.94
2019-04-07T00:55:50.501Z,993.94
2019-04-07T00:56:51.141Z,993.96
2019-04-07T00:57:50.884Z,993.93
2019-04-07T00:58:51.069Z,993.93
2019-04-07T00:59:51.480Z,993.89
2019-04-07T01:00:52.093Z,993.95
2019-04-07T01:01:51.548Z,993.93
2019-04-07T01:02:51.858Z,993.93
2019-04-07T01:03:51.947Z,993.94
2019-04-07T01:04:52.149Z,993.85
2019-04-07T01:05:52.358Z,993.93
2019-04-07T01:06:52.698Z,993.91
2019-04-07T01:07:52.796Z,993.83
2019-04-07T01:08:53.660Z,993.87
2019-04-07T01:09:53.204Z,993.85
2019-04-07T01:10:53.366Z,993.86
2019-04-07T01:11:53.979Z,993.85
2019-04-07T01:12:54.019Z,993.90
2019-04-07T01:13:53.993Z,993.89
2019-04-07T01:14:54.455Z,993.92
2019-04-07T01:15:54.887Z,993.91
2019-04-07T01:16:54.541Z,993.93
2019-04-07T01:17:54.761Z,993.91
2019-04-07T01:18:54.960Z,993.89
2019-04-07T01:19:55.158Z,993.95
2019-04-07T01:20:55.341Z,993.90
2019-04-07T01:21:55.773Z,993.89
2019-04-07T01:22:56.140Z,993.88
2019-04-07T01:23:55.951Z,993.86
2019-04-07T01:24:56.177Z,993.84
2019-04-07T01:25:56.374Z,993.92
2019-04-07T01:26:56.752Z,993.90
2019-04-07T01:27:56.785Z,993.87
2019-04-07T01:28:57.030Z,993.83
2019-04-07T01:29:57.263Z,993.83
2019-04-07T01:30:57.924Z,993.82
2019-04-07T01:31:58.382Z,993.80
2019-04-07T01:32:57.889Z,993.82
2019-04-07T01:33:58.681Z,993.88
2019-04-07T01:34:58.209Z,993.86
2019-04-07T01:35:58.408Z,993.89
2019-04-07T01:36:58.622Z,993.97
2019-04-07T01:37:59.809Z,993.98
2019-04-07T01:38:58.990Z,994.02
2019-04-07T01:39:59.275Z,993.93
2019-04-07T01:40:59.845Z,993.96
2019-04-07T01:41:59.597Z,993.93
2019-04-07T01:42:59.834Z,994.03
2019-04-07T01:44:00.181Z,993.99
2019-04-07T01:45:00.283Z,993.97
2019-04-07T01:46:01.053Z,994.00
2019-04-07T01:47:01.325Z,993.95
2019-04-07T01:48:00.913Z,994.01
2019-04-07T01:49:01.131Z,994.03
2019-04-07T01:50:01.857Z,994.02
2019-04-07T01:51:01.576Z,994.03
2019-04-07T01:52:01.941Z,993.99
2019-04-07T01:53:02.366Z,994.02
2019-04-07T01:54:02.122Z,993.96
2019-04-07T01:55:02.762Z,994.00
2019-04-07T01:56:02.939Z,993.98
2019-04-07T01:57:03.006Z,993.97
2019-04-07T01:58:03.111Z,993.94
2019-04-07T01:59:02.829Z,993.98
2019-04-07T02:00:03.070Z,993.97
2019-04-07T02:01:03.142Z,993.95
2019-04-07T02:02:03.526Z,994.01
2019-04-07T02:03:03.498Z,994.00
2019-04-07T02:04:03.924Z,993.97
2019-04-07T02:05:04.442Z,993.99
2019-04-07T02:06:05.699Z,993.94
2019-04-07T02:07:05.735Z,993.87
2019-04-07T02:08:04.512Z,993.90
2019-04-07T02:09:04.615Z,993.94
2019-04-07T02:10:05.393Z,993.91
2019-04-07T02:11:05.164Z,993.94
2019-04-07T02:12:05.254Z,993.81
2019-04-07T02:13:05.955Z,993.86
2019-04-07T02:14:05.947Z,993.85
2019-04-07T02:15:06.338Z,993.88
2019-04-07T02:16:06.037Z,993.92
2019-04-07T02:17:06.470Z,993.84
2019-04-07T02:18:07.111Z,993.81
2019-04-07T02:19:06.680Z,993.88
2019-04-07T02:20:06.881Z,993.82
2019-04-07T02:21:07.215Z,993.88
2019-04-07T02:22:07.181Z,993.85
2019-04-07T02:23:07.497Z,993.82
2019-04-07T02:24:08.038Z,993.92
2019-04-07T02:25:07.744Z,993.89
2019-04-07T02:26:08.197Z,993.83
2019-04-07T02:27:08.580Z,993.91
2019-04-07T02:28:08.308Z,993.90
2019-04-07T02:29:09.127Z,993.88
2019-04-07T02:30:08.619Z,993.92
2019-04-07T02:31:09.647Z,993.92
2019-04-07T02:32:09.865Z,993.96
2019-04-07T02:33:09.089Z,993.92
2019-04-07T02:34:09.530Z,993.92
2019-04-07T02:35:09.497Z,993.89
2019-04-07T02:36:18.164Z,993.85
2019-04-07T02:37:12.047Z,993.87
2019-04-07T02:38:11.199Z,993.91
2019-04-07T02:39:11.132Z,993.88
2019-04-07T02:40:10.378Z,993.90
2019-04-07T02:41:10.562Z,993.89
2019-04-07T02:42:11.007Z,993.86
2019-04-07T02:43:10.985Z,993.77
2019-04-07T02:44:11.212Z,993.83
2019-04-07T02:45:11.387Z,993.78
2019-04-07T02:46:11.557Z,993.87
2019-04-07T02:47:11.884Z,993.85
2019-04-07T02:48:12.541Z,993.83
2019-04-07T02:49:12.386Z,993.87
2019-04-07T02:50:12.482Z,993.91
2019-04-07T02:51:12.997Z,993.93
2019-04-07T02:52:12.614Z,993.92
2019-04-07T02:53:13.498Z,993.85
2019-04-07T02:54:13.450Z,993.92
2019-04-07T02:55:14.255Z,993.92
2019-04-07T02:56:13.469Z,993.96
2019-04-07T02:57:14.180Z,993.83
2019-04-07T02:58:13.784Z,993.88
2019-04-07T02:59:14.537Z,993.87
2019-04-07T03:00:14.075Z,993.87
2019-04-07T03:01:14.263Z,993.90
2019-04-07T03:02:14.458Z,993.91
2019-04-07T03:03:14.659Z,993.85
2019-04-07T03:04:15.977Z,993.82
2019-04-07T03:05:15.724Z,993.83
2019-04-07T03:06:32.599Z,993.81
2019-04-07T03:07:17.658Z,993.84
2019-04-07T03:08:15.677Z,993.87
2019-04-07T03:09:15.726Z,993.81
2019-04-07T03:10:15.944Z,993.87
2019-04-07T03:11:18.037Z,993.84
2019-04-07T03:12:16.384Z,993.88
2019-04-07T03:13:16.827Z,993.89
2019-04-07T03:14:17.607Z,993.88
2019-04-07T03:15:17.178Z,993.93
2019-04-07T03:16:17.309Z,993.89
2019-04-07T03:17:17.191Z,993.96
2019-04-07T03:18:17.363Z,993.89
2019-04-07T03:19:17.555Z,993.88
2019-04-07T03:20:18.714Z,993.90
2019-04-07T03:21:17.893Z,993.90
2019-04-07T03:22:18.280Z,993.99
2019-04-07T03:23:20.347Z,993.94
2019-04-07T03:24:19.391Z,993.99
2019-04-07T03:25:18.621Z,994.00
2019-04-07T03:26:18.837Z,993.98
2019-04-07T03:27:19.037Z,993.98
2019-04-07T03:28:19.724Z,993.97
2019-04-07T03:29:20.237Z,993.94
2019-04-07T03:30:20.879Z,993.93
2019-04-07T03:31:22.407Z,993.96
2019-04-07T03:32:23.935Z,993.96
2019-04-07T03:33:23.215Z,994.02
2019-04-07T03:34:23.331Z,994.00
2019-04-07T03:35:23.524Z,994.01
2019-04-07T03:36:24.243Z,994.00
2019-04-07T03:37:33.470Z,993.99
2019-04-07T03:38:22.951Z,993.96
2019-04-07T03:39:21.071Z,994.00
2019-04-07T03:40:22.214Z,993.95
2019-04-07T03:41:21.349Z,993.94
2019-04-07T03:42:21.545Z,993.96
2019-04-07T03:43:21.806Z,993.90
2019-04-07T03:44:22.545Z,993.93
2019-04-07T03:45:22.233Z,993.87
2019-04-07T03:46:22.330Z,993.90
2019-04-07T03:47:23.414Z,993.85
2019-04-07T03:48:23.152Z,993.90
2019-04-07T03:49:23.500Z,993.90
2019-04-07T03:50:23.137Z,993.88
2019-04-07T03:51:23.276Z,993.91
2019-04-07T03:52:24.996Z,993.90
2019-04-07T03:53:24.358Z,993.95
2019-04-07T03:54:24.196Z,993.94
2019-04-07T03:55:24.585Z,993.93
2019-04-07T03:56:25.340Z,993.92
2019-04-07T03:57:24.344Z,993.88
2019-04-07T03:58:24.658Z,993.84
2019-04-07T03:59:24.912Z,993.86
2019-04-07T04:00:26.192Z,993.91
2019-04-07T04:01:25.693Z,993.90
2019-04-07T04:02:26.337Z,993.93
2019-04-07T04:03:25.699Z,993.99
2019-04-07T04:04:25.615Z,993.91
2019-04-07T04:05:26.073Z,993.96
2019-04-07T04:06:26.034Z,993.92
2019-04-07T04:07:32.288Z,993.92
2019-04-07T04:08:28.780Z,993.94
2019-04-07T04:09:26.611Z,993.89
2019-04-07T04:10:26.993Z,993.92
2019-04-07T04:11:27.405Z,993.95
2019-04-07T04:12:27.651Z,993.94
2019-04-07T04:13:27.402Z,993.93
2019-04-07T04:14:27.477Z,993.91
2019-04-07T04:15:27.634Z,993.91
2019-04-07T04:16:28.545Z,993.91
2019-04-07T04:17:28.303Z,993.92
2019-04-07T04:18:28.680Z,993.94
2019-04-07T04:19:28.746Z,993.97
2019-04-07T04:20:30.254Z,993.94
2019-04-07T04:21:28.962Z,993.99
2019-04-07T04:22:29.339Z,993.99
2019-04-07T04:23:30.339Z,993.96
2019-04-07T04:24:30.296Z,993.99
2019-04-07T04:25:30.445Z,994.01
2019-04-07T04:26:29.712Z,993.99
2019-04-07T04:27:30.131Z,993.98
2019-04-07T04:28:30.659Z,993.92
2019-04-07T04:29:30.280Z,993.97
2019-04-07T04:30:30.447Z,993.96
2019-04-07T04:31:30.965Z,994.02
2019-04-07T04:32:31.053Z,994.00
2019-04-07T04:33:31.093Z,993.99
2019-04-07T04:34:31.534Z,994.01
2019-04-07T04:35:32.221Z,994.04
2019-04-07T04:36:31.625Z,994.02
2019-04-07T04:37:40.323Z,994.05
2019-04-07T04:38:33.779Z,994.03
2019-04-07T04:39:32.001Z,993.96
2019-04-07T04:40:32.420Z,994.07
2019-04-07T04:41:32.946Z,994.04
2019-04-07T04:42:33.718Z,994.07
2019-04-07T04:43:32.671Z,994.07
2019-04-07T04:44:32.873Z,994.03
2019-04-07T04:45:33.822Z,994.07
2019-04-07T04:46:33.301Z,994.03
2019-04-07T04:47:33.996Z,994.02
2019-04-07T04:48:33.874Z,994.03
2019-04-07T04:49:33.788Z,994.09
2019-04-07T04:50:33.984Z,994.03
2019-04-07T04:51:36.981Z,994.06
2019-04-07T04:52:36.351Z,994.04
2019-04-07T04:53:34.942Z,994.10
2019-04-07T04:54:35.356Z,994.03
2019-04-07T04:55:35.083Z,994.04
2019-04-07T04:56:35.001Z,994.02
2019-04-07T04:57:35.312Z,994.10
2019-04-07T04:58:36.025Z,994.09
2019-04-07T04:59:36.486Z,994.17
2019-04-07T05:00:36.254Z,994.14
2019-04-07T05:01:36.236Z,994.14
2019-04-07T05:02:36.044Z,994.19
2019-04-07T05:03:36.266Z,994.21
2019-04-07T05:04:36.428Z,994.22
2019-04-07T05:05:36.803Z,994.23
2019-04-07T05:06:36.888Z,994.29
2019-04-07T05:07:47.904Z,994.26
2019-04-07T05:08:39.303Z,994.32
2019-04-07T05:09:44.552Z,994.34
2019-04-07T05:10:39.521Z,994.30
2019-04-07T05:11:37.741Z,994.31
2019-04-07T05:12:37.963Z,994.34
2019-04-07T05:13:38.519Z,994.37
2019-04-07T05:14:38.807Z,994.36
2019-04-07T05:15:39.004Z,994.43
2019-04-07T05:16:38.849Z,994.40
2019-04-07T05:17:39.032Z,994.43
2019-04-07T05:18:39.112Z,994.34
2019-04-07T05:19:42.623Z,994.38
2019-04-07T05:20:39.835Z,994.40
2019-04-07T05:21:39.610Z,994.49
2019-04-07T05:22:39.769Z,994.49
2019-04-07T05:23:40.511Z,994.48
2019-04-07T05:24:40.096Z,994.48
2019-04-07T05:25:40.380Z,994.48
2019-04-07T05:26:40.609Z,994.57
2019-04-07T05:27:41.527Z,994.54
2019-04-07T05:28:40.842Z,994.59
2019-04-07T05:29:41.343Z,994.56
2019-04-07T05:30:41.463Z,994.52
2019-04-07T05:31:41.338Z,994.61
2019-04-07T05:32:41.770Z,994.59
2019-04-07T05:33:42.036Z,994.62
2019-04-07T05:34:42.336Z,994.65
2019-04-07T05:35:42.096Z,994.66
2019-04-07T05:36:42.228Z,994.67
2019-04-07T05:37:42.545Z,994.64
2019-04-07T05:38:42.559Z,994.64
2019-04-07T05:39:42.721Z,994.62
2019-04-07T05:40:43.298Z,994.66
2019-04-07T05:41:43.820Z,994.65
2019-04-07T05:42:43.362Z,994.67
2019-04-07T05:43:43.411Z,994.66
2019-04-07T05:44:44.233Z,994.56
2019-04-07T05:45:44.023Z,994.69
2019-04-07T05:46:43.976Z,994.68
2019-04-07T05:47:48.201Z,994.67
2019-04-07T05:48:47.516Z,994.72
2019-04-07T05:49:44.607Z,994.74
2019-04-07T05:50:44.920Z,994.70
2019-04-07T05:51:44.885Z,994.76
2019-04-07T05:52:45.046Z,994.76
2019-04-07T05:53:47.446Z,994.82
2019-04-07T05:54:49.538Z,994.84
2019-04-07T05:55:46.875Z,994.82
2019-04-07T05:56:45.984Z,994.80
2019-04-07T05:57:46.478Z,994.88
2019-04-07T05:58:46.306Z,994.85
2019-04-07T05:59:47.128Z,994.87
2019-04-07T06:00:48.597Z,994.82
2019-04-07T06:01:48.503Z,994.86
2019-04-07T06:02:47.114Z,994.87
2019-04-07T06:03:47.885Z,994.86
2019-04-07T06:04:48.428Z,994.84
2019-04-07T06:05:50.675Z,994.89
2019-04-07T06:06:52.715Z,994.87
2019-04-07T06:07:48.833Z,994.94
2019-04-07T06:08:48.820Z,994.92
2019-04-07T06:09:51.167Z,994.90
2019-04-07T06:10:48.383Z,994.88
2019-04-07T06:11:48.767Z,994.87
2019-04-07T06:12:49.212Z,994.87
2019-04-07T06:13:48.959Z,994.89
2019-04-07T06:14:49.765Z,994.91
2019-04-07T06:15:51.229Z,994.92
2019-04-07T06:16:52.498Z,994.94
2019-04-07T06:17:51.162Z,994.94
2019-04-07T06:18:50.145Z,994.98
2019-04-07T06:19:51.602Z,994.92
2019-04-07T06:20:51.834Z,994.94
2019-04-07T06:21:50.217Z,994.95
2019-04-07T06:22:53.493Z,994.97
2019-04-07T06:23:55.294Z,994.92
2019-04-07T06:24:51.680Z,994.92
2019-04-07T06:25:51.091Z,994.95
2019-04-07T06:26:51.043Z,994.93
2019-04-07T06:27:51.899Z,994.97
2019-04-07T06:28:55.844Z,994.93
2019-04-07T06:29:57.156Z,994.95
2019-04-07T06:30:53.048Z,994.95
2019-04-07T06:31:51.817Z,994.97
2019-04-07T06:32:52.724Z,994.97
2019-04-07T06:33:55.040Z,994.96
2019-04-07T06:34:53.084Z,994.93
2019-04-07T06:35:54.941Z,994.85
2019-04-07T06:36:55.536Z,994.86
2019-04-07T06:37:54.905Z,995.03
2019-04-07T06:38:54.746Z,994.98
2019-04-07T06:39:53.656Z,994.86
2019-04-07T06:40:57.086Z,994.89
2019-04-07T06:41:58.909Z,994.93
2019-04-07T06:42:54.774Z,994.97
2019-04-07T06:43:55.995Z,994.95
2019-04-07T06:44:55.406Z,995.00
2019-04-07T06:45:54.986Z,994.92
2019-04-07T06:46:58.525Z,994.92
2019-04-07T06:47:56.619Z,994.95
2019-04-07T06:48:55.118Z,994.95
2019-04-07T06:49:55.044Z,994.96
2019-04-07T06:50:58.240Z,994.85
2019-04-07T06:51:56.369Z,994.91
2019-04-07T06:52:55.587Z,994.87
2019-04-07T06:53:55.817Z,994.97
2019-04-07T06:54:56.347Z,994.91
2019-04-07T06:56:00.117Z,994.93
2019-04-07T06:56:58.978Z,994.94
2019-04-07T06:57:57.120Z,994.95
2019-04-07T06:58:56.626Z,994.91
2019-04-07T06:59:56.810Z,994.99
2019-04-07T07:00:58.607Z,994.92
2019-04-07T07:01:59.137Z,994.94
2019-04-07T07:02:59.656Z,994.99
2019-04-07T07:03:57.591Z,994.97
2019-04-07T07:04:58.300Z,994.95
2019-04-07T07:06:00.199Z,994.96
2019-04-07T07:06:58.062Z,994.93
2019-04-07T07:07:58.213Z,995.01
2019-04-07T07:08:58.450Z,995.03
2019-04-07T07:10:00.120Z,994.98
2019-04-07T07:10:59.784Z,995.02
2019-04-07T07:11:59.045Z,995.02
2019-04-07T07:13:01.935Z,994.99
2019-04-07T07:14:02.121Z,995.00
2019-04-07T07:15:00.932Z,995.01
2019-04-07T07:16:01.416Z,994.95
2019-04-07T07:17:00.416Z,994.95
2019-04-07T07:18:00.143Z,994.99
2019-04-07T07:19:02.074Z,994.98
2019-04-07T07:20:04.207Z,995.01
2019-04-07T07:21:03.132Z,995.00
2019-04-07T07:22:01.199Z,994.96
2019-04-07T07:23:00.934Z,995.01
2019-04-07T07:24:01.267Z,994.95
2019-04-07T07:25:01.396Z,995.04
2019-04-07T07:26:03.129Z,994.96
2019-04-07T07:27:06.668Z,994.98
2019-04-07T07:28:03.277Z,994.97
2019-04-07T07:29:02.058Z,995.00
2019-04-07T07:30:02.539Z,995.03
2019-04-07T07:31:02.306Z,994.96
2019-04-07T07:32:03.961Z,994.97
2019-04-07T07:33:07.322Z,994.99
2019-04-07T07:34:03.931Z,995.00
2019-04-07T07:35:03.095Z,994.98
2019-04-07T07:36:03.469Z,994.97
2019-04-07T07:37:03.962Z,995.06
2019-04-07T07:38:03.800Z,994.99
2019-04-07T07:39:08.558Z,994.99
2019-04-07T07:40:07.844Z,995.01
2019-04-07T07:41:05.050Z,995.00
2019-04-07T07:42:04.207Z,994.98
2019-04-07T07:43:04.455Z,994.96
2019-04-07T07:44:07.833Z,995.01
2019-04-07T07:45:08.092Z,994.96
2019-04-07T07:46:06.751Z,994.95
2019-04-07T07:47:05.089Z,995.01
2019-04-07T07:48:05.405Z,994.97
2019-04-07T07:49:06.043Z,994.99
2019-04-07T07:50:07.609Z,994.95
2019-04-07T07:51:07.185Z,994.96
2019-04-07T07:52:07.202Z,994.97
2019-04-07T07:53:06.765Z,994.97
2019-04-07T07:54:06.455Z,994.92
2019-04-07T07:55:06.592Z,994.92
2019-04-07T07:56:11.332Z,994.86
2019-04-07T07:57:09.004Z,994.86
2019-04-07T07:58:07.319Z,994.89
2019-04-07T07:59:07.735Z,994.91
2019-04-07T08:00:08.343Z,994.87
2019-04-07T08:01:11.078Z,994.84
2019-04-07T08:02:07.803Z,994.84
2019-04-07T08:03:08.549Z,994.81
2019-04-07T08:04:08.685Z,994.88
2019-04-07T08:05:08.383Z,994.87
2019-04-07T08:06:08.558Z,994.80
2019-04-07T08:07:09.032Z,994.84
2019-04-07T08:08:10.337Z,994.74
2019-04-07T08:09:14.641Z,994.72
2019-04-07T08:10:11.379Z,994.78
2019-04-07T08:11:10.028Z,994.77
2019-04-07T08:12:10.304Z,994.73
2019-04-07T08:13:10.283Z,994.82
2019-04-07T08:14:14.212Z,994.80
2019-04-07T08:15:11.624Z,994.77
2019-04-07T08:16:10.933Z,994.80
2019-04-07T08:17:10.648Z,994.78
2019-04-07T08:18:11.414Z,994.83
2019-04-07T08:19:11.025Z,994.74
2019-04-07T08:20:12.362Z,994.77
2019-04-07T08:21:12.461Z,994.75
2019-04-07T08:22:12.505Z,994.74
2019-04-07T08:23:12.531Z,994.74
2019-04-07T08:24:16.377Z,994.81
2019-04-07T08:25:13.155Z,994.77
2019-04-07T08:26:12.542Z,994.71
2019-04-07T08:27:12.375Z,994.69
2019-04-07T08:28:12.551Z,994.76
2019-04-07T08:29:13.794Z,994.70
2019-04-07T08:30:13.859Z,994.65
2019-04-07T08:31:17.774Z,994.60
2019-04-07T08:32:14.265Z,994.62
2019-04-07T08:33:13.390Z,994.64
2019-04-07T08:34:14.280Z,994.62
2019-04-07T08:35:14.340Z,994.60
2019-04-07T08:36:14.735Z,994.54
2019-04-07T08:37:15.469Z,994.58
2019-04-07T08:38:19.284Z,994.57
2019-04-07T08:39:22.708Z,994.56
2019-04-07T08:40:16.707Z,994.51
2019-04-07T08:41:15.888Z,994.51
2019-04-07T08:42:18.528Z,994.45
2019-04-07T08:43:19.625Z,994.50
2019-04-07T08:44:17.145Z,994.51
2019-04-07T08:45:15.703Z,994.58
2019-04-07T08:46:16.386Z,994.48
2019-04-07T08:47:20.743Z,994.49
2019-04-07T08:48:20.345Z,994.46
2019-04-07T08:49:18.031Z,994.46
2019-04-07T08:50:16.951Z,994.50
2019-04-07T08:51:16.724Z,994.45
2019-04-07T08:52:17.433Z,994.47
2019-04-07T08:53:17.131Z,994.47
2019-04-07T08:54:18.447Z,994.44
2019-04-07T08:55:20.086Z,994.40
2019-04-07T08:56:17.872Z,994.50
2019-04-07T08:57:17.831Z,994.46
2019-04-07T08:58:25.131Z,994.44
2019-04-07T08:59:20.125Z,994.48
2019-04-07T09:00:18.405Z,994.43
2019-04-07T09:01:20.386Z,994.41
2019-04-07T09:02:20.062Z,994.37
2019-04-07T09:03:18.888Z,994.47
2019-04-07T09:04:19.074Z,994.46
2019-04-07T09:05:23.088Z,994.49
2019-04-07T09:06:21.533Z,994.42
2019-04-07T09:07:22.565Z,994.37
2019-04-07T09:08:20.418Z,994.37
2019-04-07T09:09:32.090Z,994.45
2019-04-07T09:10:22.028Z,994.35
2019-04-07T09:11:22.425Z,994.48
2019-04-07T09:12:21.846Z,994.47
2019-04-07T09:13:20.811Z,994.40
2019-04-07T09:14:20.668Z,994.40
2019-04-07T09:15:21.184Z,994.43
2019-04-07T09:16:21.001Z,994.43
2019-04-07T09:17:30.666Z,994.42
2019-04-07T09:18:23.356Z,994.39
2019-04-07T09:19:21.490Z,994.50
2019-04-07T09:20:21.668Z,994.42
2019-04-07T09:21:34.227Z,994.52
2019-04-07T09:22:23.292Z,994.57
2019-04-07T09:23:26.397Z,994.54
2019-04-07T09:24:22.472Z,994.47
2019-04-07T09:25:22.699Z,994.61
2019-04-07T09:26:23.769Z,994.55
2019-04-07T09:27:23.893Z,994.49
2019-04-07T09:28:24.205Z,994.59
2019-04-07T09:29:26.047Z,994.54
2019-04-07T09:30:24.986Z,994.60
2019-04-07T09:31:24.536Z,994.59
2019-04-07T09:32:23.958Z,994.62
2019-04-07T09:33:24.272Z,994.50
2019-04-07T09:34:24.816Z,994.46
2019-04-07T09:35:26.465Z,994.58
2019-04-07T09:36:25.644Z,994.50
2019-04-07T09:37:25.965Z,994.64
2019-04-07T09:38:27.123Z,994.62
2019-04-07T09:39:25.244Z,994.54
2019-04-07T09:40:25.415Z,994.52
2019-04-07T09:41:28.130Z,994.50
2019-04-07T09:42:26.829Z,994.43
2019-04-07T09:43:26.227Z,994.44
2019-04-07T09:44:26.571Z,994.46
2019-04-07T09:45:26.507Z,994.40
2019-04-07T09:46:26.531Z,994.37
2019-04-07T09:47:26.885Z,994.36
2019-04-07T09:48:27.770Z,994.35
2019-04-07T09:49:27.127Z,994.34
2019-04-07T09:50:28.557Z,994.35
2019-04-07T09:51:28.436Z,994.32
2019-04-07T09:52:28.302Z,994.33
2019-04-07T09:53:28.582Z,994.28
2019-04-07T09:54:27.959Z,994.26
2019-04-07T09:55:28.757Z,994.22
2019-04-07T09:56:31.395Z,994.25
2019-04-07T09:57:30.296Z,994.26
2019-04-07T09:58:28.723Z,994.30
2019-04-07T09:59:29.654Z,994.33
2019-04-07T10:00:29.911Z,994.19
2019-04-07T10:01:29.778Z,994.30
2019-04-07T10:02:33.573Z,994.33
2019-04-07T10:03:31.668Z,994.22
2019-04-07T10:04:29.893Z,994.24
2019-04-07T10:05:30.890Z,994.34
2019-04-07T10:06:31.185Z,994.24
2019-04-07T10:07:31.578Z,994.19
2019-04-07T10:08:30.613Z,994.21
2019-04-07T10:09:30.777Z,994.20
2019-04-07T10:10:31.468Z,994.18
2019-04-07T10:11:31.761Z,994.18
2019-04-07T10:12:32.058Z,994.17
2019-04-07T10:13:31.793Z,994.19
2019-04-07T10:14:31.779Z,994.20
2019-04-07T10:15:32.610Z,994.14
2019-04-07T10:16:34.797Z,994.17
2019-04-07T10:17:32.925Z,994.12
2019-04-07T10:18:33.668Z,994.10
2019-04-07T10:19:33.543Z,994.13
2019-04-07T10:20:32.663Z,994.15
2019-04-07T10:21:32.880Z,994.02
2019-04-07T10:22:33.049Z,994.03
2019-04-07T10:23:33.252Z,994.05
2019-04-07T10:24:33.442Z,994.03
2019-04-07T10:25:34.281Z,994.03
2019-04-07T10:26:33.814Z,994.08
2019-04-07T10:27:34.016Z,994.04
2019-04-07T10:28:34.201Z,993.99
2019-04-07T10:29:34.359Z,993.98
2019-04-07T10:30:34.938Z,993.97
2019-04-07T10:31:35.003Z,993.97
2019-04-07T10:32:34.978Z,994.00
2019-04-07T10:33:35.764Z,994.02
2019-04-07T10:34:35.374Z,994.01
2019-04-07T10:35:36.011Z,993.93
2019-04-07T10:36:36.272Z,993.96
2019-04-07T10:37:36.225Z,994.01
2019-04-07T10:38:36.380Z,993.98
2019-04-07T10:39:37.032Z,993.99
2019-04-07T10:40:37.910Z,993.97
2019-04-07T10:41:37.162Z,993.98
2019-04-07T10:42:37.052Z,993.93
2019-04-07T10:43:37.234Z,993.93
2019-04-07T10:44:37.798Z,993.92
2019-04-07T10:45:38.320Z,993.94
2019-04-07T10:46:37.853Z,993.89
2019-04-07T10:47:38.499Z,993.89
2019-04-07T10:48:38.172Z,993.84
2019-04-07T10:49:39.511Z,993.85
2019-04-07T10:50:38.556Z,993.81
2019-04-07T10:51:38.741Z,993.84
2019-04-07T10:52:39.333Z,993.84
2019-04-07T10:53:39.408Z,993.78
2019-04-07T10:54:39.304Z,993.81
2019-04-07T10:55:39.594Z,993.76
2019-04-07T10:56:39.544Z,993.77
2019-04-07T10:57:39.719Z,993.70
2019-04-07T10:58:40.314Z,993.79
2019-04-07T10:59:40.321Z,993.92
2019-04-07T11:00:44.686Z,993.77
2019-04-07T11:01:42.373Z,993.81
2019-04-07T11:02:40.493Z,993.94
2019-04-07T11:03:40.717Z,993.83
2019-04-07T11:04:41.067Z,993.84
2019-04-07T11:05:41.180Z,993.80
2019-04-07T11:06:41.276Z,993.76
2019-04-07T11:07:42.074Z,993.77
2019-04-07T11:08:42.239Z,993.71
2019-04-07T11:09:41.806Z,993.80
2019-04-07T11:10:42.007Z,993.81
2019-04-07T11:11:42.193Z,993.75
2019-04-07T11:12:42.451Z,993.85
2019-04-07T11:13:42.533Z,993.75
2019-04-07T11:14:43.000Z,993.72
2019-04-07T11:15:43.214Z,993.80
2019-04-07T11:16:43.166Z,993.79
2019-04-07T11:17:43.658Z,993.76
2019-04-07T11:18:43.943Z,993.75
2019-04-07T11:19:43.602Z,993.72
2019-04-07T11:20:44.480Z,993.76
2019-04-07T11:21:43.974Z,993.74
2019-04-07T11:22:44.225Z,993.80
2019-04-07T11:23:45.176Z,993.77
2019-04-07T11:24:44.639Z,993.78
2019-04-07T11:25:45.044Z,993.75
2019-04-07T11:26:45.449Z,993.70
2019-04-07T11:27:45.180Z,993.80
2019-04-07T11:28:45.318Z,993.75
2019-04-07T11:29:45.481Z,993.72
2019-04-07T11:30:45.683Z,993.76
2019-04-07T11:31:45.867Z,993.73
2019-04-07T11:32:46.169Z,993.72
2019-04-07T11:33:47.014Z,993.75
2019-04-07T11:34:46.711Z,993.75
2019-04-07T11:35:46.525Z,993.75
2019-04-07T11:36:46.752Z,993.69
2019-04-07T11:37:47.326Z,993.72
2019-04-07T11:38:47.261Z,993.65
2019-04-07T11:39:47.946Z,993.65
2019-04-07T11:40:50.899Z,993.67
2019-04-07T11:41:48.733Z,993.65
2019-04-07T11:42:48.094Z,993.68
2019-04-07T11:43:48.056Z,993.64
2019-04-07T11:44:48.814Z,993.66
2019-04-07T11:45:58.426Z,993.56
2019-04-07T11:46:50.910Z,993.71
2019-04-07T11:47:49.281Z,993.85
2019-04-07T11:48:49.200Z,993.72
2019-04-07T11:49:49.596Z,993.73
2019-04-07T11:50:50.537Z,993.68
2019-04-07T11:51:49.485Z,993.65
2019-04-07T11:52:50.488Z,993.52
2019-04-07T11:53:50.250Z,993.77
2019-04-07T11:54:49.971Z,993.70
2019-04-07T11:55:50.991Z,993.57
2019-04-07T11:56:50.510Z,993.70
2019-04-07T11:58:03.638Z,993.64
2019-04-07T11:58:53.075Z,993.69
2019-04-07T11:59:51.298Z,993.76
2019-04-07T12:00:51.557Z,993.89
2019-04-07T12:01:51.271Z,993.86
2019-04-07T12:02:52.352Z,993.86
2019-04-07T12:03:54.668Z,993.74
2019-04-07T12:04:53.396Z,993.62
2019-04-07T12:05:52.069Z,993.72
2019-04-07T12:06:52.611Z,993.75
2019-04-07T12:07:56.509Z,993.91
2019-04-07T12:08:53.557Z,993.86
2019-04-07T12:09:54.235Z,993.74
2019-04-07T12:10:58.531Z,993.73
2019-04-07T12:11:55.001Z,993.84
2019-04-07T12:12:53.827Z,993.85
2019-04-07T12:13:54.265Z,993.84
2019-04-07T12:14:54.616Z,993.72
2019-04-07T12:15:56.058Z,993.57
2019-04-07T12:16:56.929Z,993.65
2019-04-07T12:17:54.522Z,993.82
2019-04-07T12:18:54.541Z,993.73
2019-04-07T12:19:56.543Z,993.68
2019-04-07T12:20:56.179Z,993.63
2019-04-07T12:21:54.742Z,993.73
2019-04-07T12:22:54.981Z,993.75
2019-04-07T12:23:55.399Z,993.78
2019-04-07T12:24:59.277Z,993.82
2019-04-07T12:25:57.646Z,993.82
2019-04-07T12:26:56.576Z,993.73
2019-04-07T12:27:55.897Z,993.87
2019-04-07T12:28:56.097Z,993.77
2019-04-07T12:29:55.907Z,993.75
2019-04-07T12:30:56.412Z,993.87